sensor_id;sensor_type;location;lat;lon;timestamp;pressure;altitude;pressure_sealevel;temperature;humidity
61474;BME280;53694;49.784;30.150;2023-07-20T00:00:05;99025.03;;;18.60;66.86
61474;BME280;53694;49.784;30.150;2023-07-20T00:01:08;99010.66;;;18.45;67.59
61474;BME280;53694;49.784;30.150;2023-07-20T00:02:09;99004.53;;;18.34;68.18
61474;BME280;53694;49.784;30.150;2023-07-20T00:03:12;99011.52;;;18.22;68.66
61474;BME280;53694;49.784;30.150;2023-07-20T00:04:14;99009.81;;;18.08;68.85
61474;BME280;53694;49.784;30.150;2023-07-20T00:05:16;99004.11;;;17.95;69.35
61474;BME280;53694;49.784;30.150;2023-07-20T00:06:18;99011.50;;;17.82;69.75
61474;BME280;53694;49.784;30.150;2023-07-20T00:07:19;99016.42;;;17.71;70.21
61474;BME280;53694;49.784;30.150;2023-07-20T00:08:21;99015.48;;;17.58;70.53
61474;BME280;53694;49.784;30.150;2023-07-20T00:09:22;99013.69;;;17.47;70.81
61474;BME280;53694;49.784;30.150;2023-07-20T00:10:24;99016.89;;;17.46;70.96
61474;BME280;53694;49.784;30.150;2023-07-20T00:11:27;98986.59;;;17.55;70.78
61474;BME280;53694;49.784;30.150;2023-07-20T00:12:29;99013.25;;;17.72;70.05
61474;BME280;53694;49.784;30.150;2023-07-20T00:13:30;99013.59;;;17.98;69.02
61474;BME280;53694;49.784;30.150;2023-07-20T00:14:32;99020.22;;;18.24;67.63
61474;BME280;53694;49.784;30.150;2023-07-20T00:15:34;99011.78;;;18.47;66.67
61474;BME280;53694;49.784;30.150;2023-07-20T00:16:35;99016.20;;;18.65;65.75
61474;BME280;53694;49.784;30.150;2023-07-20T00:17:37;99014.54;;;18.67;65.62
61474;BME280;53694;49.784;30.150;2023-07-20T00:18:38;99012.27;;;18.62;65.66
61474;BME280;53694;49.784;30.150;2023-07-20T00:19:39;99013.30;;;18.52;66.35
61474;BME280;53694;49.784;30.150;2023-07-20T00:20:41;99006.02;;;18.38;66.98
61474;BME280;53694;49.784;30.150;2023-07-20T00:21:43;99011.11;;;18.23;67.40
61474;BME280;53694;49.784;30.150;2023-07-20T00:22:44;99013.03;;;18.07;67.82
61474;BME280;53694;49.784;30.150;2023-07-20T00:23:45;99013.72;;;17.91;68.30
61474;BME280;53694;49.784;30.150;2023-07-20T00:24:47;99015.48;;;17.58;68.72
61474;BME280;53694;49.784;30.150;2023-07-20T00:25:48;99015.48;;;17.58;68.72
61474;BME280;53694;49.784;30.150;2023-07-20T00:26:50;99013.39;;;17.42;69.51
61474;BME280;53694;49.784;30.150;2023-07-20T00:27:52;99015.17;;;17.29;69.81
61474;BME280;53694;49.784;30.150;2023-07-20T00:28:53;99014.20;;;17.15;70.34
61474;BME280;53694;49.784;30.150;2023-07-20T00:29:55;99010.39;;;17.06;70.96
61474;BME280;53694;49.784;30.150;2023-07-20T00:30:56;99014.48;;;16.97;71.51
61474;BME280;53694;49.784;30.150;2023-07-20T00:32:00;99009.77;;;16.94;71.82
61474;BME280;53694;49.784;30.150;2023-07-20T00:33:01;99007.27;;;17.04;71.65
61474;BME280;53694;49.784;30.150;2023-07-20T00:34:06;99012.09;;;17.23;71.25
61474;BME280;53694;49.784;30.150;2023-07-20T00:35:08;99010.47;;;17.49;71.17
61474;BME280;53694;49.784;30.150;2023-07-20T00:36:10;99011.16;;;17.80;69.98
61474;BME280;53694;49.784;30.150;2023-07-20T00:37:11;99012.96;;;18.10;68.79
61474;BME280;53694;49.784;30.150;2023-07-20T00:38:13;99004.47;;;18.37;67.77
61474;BME280;53694;49.784;30.150;2023-07-20T00:39:14;99016.76;;;18.56;66.50
61474;BME280;53694;49.784;30.150;2023-07-20T00:40:16;99011.49;;;18.62;65.95
61474;BME280;53694;49.784;30.150;2023-07-20T00:41:18;99005.23;;;18.58;65.71
61474;BME280;53694;49.784;30.150;2023-07-20T00:42:19;99003.10;;;18.45;65.73
61474;BME280;53694;49.784;30.150;2023-07-20T00:43:21;99004.60;;;18.30;65.97
61474;BME280;53694;49.784;30.150;2023-07-20T00:44:22;99004.19;;;18.12;66.25
61474;BME280;53694;49.784;30.150;2023-07-20T00:45:24;99001.77;;;17.94;66.67
61474;BME280;53694;49.784;30.150;2023-07-20T00:46:27;99008.47;;;17.73;67.20
61474;BME280;53694;49.784;30.150;2023-07-20T00:47:29;99013.56;;;17.55;67.94
61474;BME280;53694;49.784;30.150;2023-07-20T00:48:31;99014.28;;;17.35;68.45
61474;BME280;53694;49.784;30.150;2023-07-20T00:49:32;99005.47;;;17.17;68.80
61474;BME280;53694;49.784;30.150;2023-07-20T00:50:34;99000.99;;;16.99;69.37
61474;BME280;53694;49.784;30.150;2023-07-20T00:51:36;99006.38;;;16.83;70.09
61474;BME280;53694;49.784;30.150;2023-07-20T00:52:38;99000.99;;;16.69;70.82
61474;BME280;53694;49.784;30.150;2023-07-20T00:53:40;98998.38;;;16.58;71.41
61474;BME280;53694;49.784;30.150;2023-07-20T00:54:42;98999.64;;;16.54;71.94
61474;BME280;53694;49.784;30.150;2023-07-20T00:55:45;98995.19;;;16.60;72.20
61474;BME280;53694;49.784;30.150;2023-07-20T00:56:47;99016.36;;;16.77;72.00
61474;BME280;53694;49.784;30.150;2023-07-20T00:57:49;98999.00;;;17.00;71.45
61474;BME280;53694;49.784;30.150;2023-07-20T00:58:51;99006.06;;;17.28;70.74
61474;BME280;53694;49.784;30.150;2023-07-20T00:59:53;98998.47;;;17.56;70.02
61474;BME280;53694;49.784;30.150;2023-07-20T01:00:55;99010.66;;;17.85;69.09
61474;BME280;53694;49.784;30.150;2023-07-20T01:01:56;99002.97;;;18.13;68.23
61474;BME280;53694;49.784;30.150;2023-07-20T01:02:58;98993.34;;;18.37;67.29
61474;BME280;53694;49.784;30.150;2023-07-20T01:03:59;99004.86;;;18.56;66.29
61474;BME280;53694;49.784;30.150;2023-07-20T01:05:01;99005.23;;;18.58;65.97
61474;BME280;53694;49.784;30.150;2023-07-20T01:06:34;99004.66;;;18.46;66.25
61474;BME280;53694;49.784;30.150;2023-07-20T01:07:42;98999.05;;;18.30;66.73
61474;BME280;53694;49.784;30.150;2023-07-20T01:10:03;99006.07;;;17.75;68.49
61474;BME280;53694;49.784;30.150;2023-07-20T01:11:16;99014.41;;;17.52;69.49
61474;BME280;53694;49.784;30.150;2023-07-20T01:12:31;99015.98;;;17.29;70.17
61474;BME280;53694;49.784;30.150;2023-07-20T01:13:33;99015.94;;;17.06;70.96
61474;BME280;53694;49.784;30.150;2023-07-20T01:14:36;99015.05;;;16.85;71.84
61474;BME280;53694;49.784;30.150;2023-07-20T01:15:37;99014.02;;;16.76;72.45
61474;BME280;53694;49.784;30.150;2023-07-20T01:16:40;99018.34;;;16.77;72.70
61474;BME280;53694;49.784;30.150;2023-07-20T01:17:41;99017.00;;;16.88;72.26
61474;BME280;53694;49.784;30.150;2023-07-20T01:18:43;99011.95;;;17.07;71.67
61474;BME280;53694;49.784;30.150;2023-07-20T01:19:44;99020.32;;;17.30;70.71
61474;BME280;53694;49.784;30.150;2023-07-20T01:20:46;99010.41;;;17.53;69.88
61474;BME280;53694;49.784;30.150;2023-07-20T01:22:01;99008.06;;;17.74;69.39
61474;BME280;53694;49.784;30.150;2023-07-20T01:23:16;99006.48;;;17.97;68.80
61474;BME280;53694;49.784;30.150;2023-07-20T01:31:10;99015.06;;;17.36;69.06
61474;BME280;53694;49.784;30.150;2023-07-20T01:32:04;99019.80;;;17.12;69.79
61474;BME280;53694;49.784;30.150;2023-07-20T01:33:07;99015.48;;;16.84;70.79
61474;BME280;53694;49.784;30.150;2023-07-20T01:34:12;99003.03;;;16.65;71.54
61474;BME280;53694;49.784;30.150;2023-07-20T01:35:16;99011.59;;;16.47;72.07
61474;BME280;53694;49.784;30.150;2023-07-20T01:36:19;99005.00;;;16.37;72.57
61474;BME280;53694;49.784;30.150;2023-07-20T01:37:23;99010.89;;;16.39;72.75
61474;BME280;53694;49.784;30.150;2023-07-20T01:38:25;99007.95;;;16.54;72.54
61474;BME280;53694;49.784;30.150;2023-07-20T01:39:27;99008.48;;;16.72;71.90
61474;BME280;53694;49.784;30.150;2023-07-20T01:40:29;99011.36;;;16.95;71.30
61474;BME280;53694;49.784;30.150;2023-07-20T01:41:31;99009.43;;;17.16;70.51
61474;BME280;53694;49.784;30.150;2023-07-20T01:42:34;99012.66;;;17.38;69.52
61474;BME280;53694;49.784;30.150;2023-07-20T01:43:35;99012.70;;;17.58;68.83
61474;BME280;53694;49.784;30.150;2023-07-20T01:44:38;99011.63;;;17.75;67.86
61474;BME280;53694;49.784;30.150;2023-07-20T01:45:39;99009.44;;;17.86;67.37
61474;BME280;53694;49.784;30.150;2023-07-20T01:46:41;99005.11;;;17.85;67.20
61474;BME280;53694;49.784;30.150;2023-07-20T01:47:42;99016.40;;;17.74;67.61
61474;BME280;53694;49.784;30.150;2023-07-20T01:48:44;99010.30;;;17.60;68.14
61474;BME280;53694;49.784;30.150;2023-07-20T01:49:46;99010.18;;;17.43;68.77
61474;BME280;53694;49.784;30.150;2023-07-20T01:50:47;99008.84;;;17.28;69.24
61474;BME280;53694;49.784;30.150;2023-07-20T01:51:49;99012.69;;;17.11;69.84
61474;BME280;53694;49.784;30.150;2023-07-20T01:52:50;99010.92;;;16.97;70.28
61474;BME280;53694;49.784;30.150;2023-07-20T01:53:52;99008.42;;;16.79;70.65
61474;BME280;53694;49.784;30.150;2023-07-20T01:54:53;99014.55;;;16.63;71.08
61474;BME280;53694;49.784;30.150;2023-07-20T01:55:56;99011.94;;;16.53;71.69
61474;BME280;53694;49.784;30.150;2023-07-20T01:56:58;99009.94;;;16.53;71.96
61474;BME280;53694;49.784;30.150;2023-07-20T01:58:00;99011.77;;;16.63;71.77
61474;BME280;53694;49.784;30.150;2023-07-20T01:59:01;99017.09;;;16.81;71.19
61474;BME280;53694;49.784;30.150;2023-07-20T02:00:03;99009.71;;;16.98;70.43
61474;BME280;53694;49.784;30.150;2023-07-20T02:01:05;99016.97;;;17.15;69.81
61474;BME280;53694;49.784;30.150;2023-07-20T02:02:07;99020.27;;;17.34;69.17
61474;BME280;53694;49.784;30.150;2023-07-20T02:03:08;99023.57;;;17.48;68.63
61474;BME280;53694;49.784;30.150;2023-07-20T02:04:10;99026.58;;;17.58;68.04
61474;BME280;53694;49.784;30.150;2023-07-20T02:05:11;99021.09;;;17.54;68.05
61474;BME280;53694;49.784;30.150;2023-07-20T02:06:14;99028.05;;;17.42;68.04
61474;BME280;53694;49.784;30.150;2023-07-20T02:07:15;99021.20;;;17.23;68.43
61474;BME280;53694;49.784;30.150;2023-07-20T02:08:17;99015.99;;;17.02;69.11
61474;BME280;53694;49.784;30.150;2023-07-20T02:09:18;99014.75;;;16.80;69.89
61474;BME280;53694;49.784;30.150;2023-07-20T02:10:20;99010.69;;;16.57;70.41
61474;BME280;53694;49.784;30.150;2023-07-20T02:11:21;99019.67;;;16.34;71.08
61474;BME280;53694;49.784;30.150;2023-07-20T02:12:23;99013.19;;;16.14;71.92
61474;BME280;53694;49.784;30.150;2023-07-20T02:13:24;99022.05;;;16.02;72.67
61474;BME280;53694;49.784;30.150;2023-07-20T02:14:26;99019.68;;;16.00;73.12
61474;BME280;53694;49.784;30.150;2023-07-20T02:15:27;99012.05;;;16.11;73.07
61474;BME280;53694;49.784;30.150;2023-07-20T02:16:29;99016.58;;;16.29;72.80
61474;BME280;53694;49.784;30.150;2023-07-20T02:17:30;99018.66;;;16.52;72.44
61474;BME280;53694;49.784;30.150;2023-07-20T02:18:32;99016.00;;;16.75;71.59
61474;BME280;53694;49.784;30.150;2023-07-20T02:19:34;99018.47;;;16.96;70.58
61474;BME280;53694;49.784;30.150;2023-07-20T02:20:36;99016.19;;;17.15;70.03
61474;BME280;53694;49.784;30.150;2023-07-20T02:21:37;99021.39;;;17.36;69.19
61474;BME280;53694;49.784;30.150;2023-07-20T02:22:39;99017.53;;;17.54;68.69
61474;BME280;53694;49.784;30.150;2023-07-20T02:23:41;99019.20;;;17.71;68.05
61474;BME280;53694;49.784;30.150;2023-07-20T02:24:43;99017.49;;;17.81;67.39
61474;BME280;53694;49.784;30.150;2023-07-20T02:25:44;99006.88;;;17.76;67.17
61474;BME280;53694;49.784;30.150;2023-07-20T02:26:46;99015.02;;;17.63;67.44
61474;BME280;53694;49.784;30.150;2023-07-20T02:27:48;99008.97;;;17.44;67.76
61474;BME280;53694;49.784;30.150;2023-07-20T02:28:49;99017.30;;;17.21;68.31
61474;BME280;53694;49.784;30.150;2023-07-20T02:29:51;99013.70;;;16.97;69.09
61474;BME280;53694;49.784;30.150;2023-07-20T02:30:52;99012.45;;;16.74;69.93
61474;BME280;53694;49.784;30.150;2023-07-20T02:31:54;99010.73;;;16.54;70.91
61474;BME280;53694;49.784;30.150;2023-07-20T02:32:55;99007.77;;;16.37;71.83
61474;BME280;53694;49.784;30.150;2023-07-20T02:33:57;99007.53;;;16.24;72.78
61474;BME280;53694;49.784;30.150;2023-07-20T02:34:58;99009.55;;;16.20;73.12
61474;BME280;53694;49.784;30.150;2023-07-20T02:36:00;99005.12;;;16.27;72.94
61474;BME280;53694;49.784;30.150;2023-07-20T02:37:01;99006.52;;;16.42;72.62
61474;BME280;53694;49.784;30.150;2023-07-20T02:38:03;99016.54;;;16.63;71.99
61474;BME280;53694;49.784;30.150;2023-07-20T02:39:05;99009.89;;;16.87;71.44
61474;BME280;53694;49.784;30.150;2023-07-20T02:40:07;99010.30;;;17.13;70.43
61474;BME280;53694;49.784;30.150;2023-07-20T02:41:09;99013.84;;;17.37;69.74
61474;BME280;53694;49.784;30.150;2023-07-20T02:42:11;98984.09;;;17.61;69.13
61474;BME280;53694;49.784;30.150;2023-07-20T02:43:12;99013.94;;;17.80;68.48
61474;BME280;53694;49.784;30.150;2023-07-20T02:44:14;99011.31;;;17.93;67.52
61474;BME280;53694;49.784;30.150;2023-07-20T02:45:16;99007.32;;;17.94;66.95
61474;BME280;53694;49.784;30.150;2023-07-20T02:46:17;99007.51;;;17.83;67.07
61474;BME280;53694;49.784;30.150;2023-07-20T02:47:19;99011.75;;;17.68;67.15
61474;BME280;53694;49.784;30.150;2023-07-20T02:48:20;99006.56;;;17.46;67.59
61474;BME280;53694;49.784;30.150;2023-07-20T02:49:22;99010.11;;;17.23;68.50
61474;BME280;53694;49.784;30.150;2023-07-20T02:50:23;99010.87;;;17.01;69.42
61474;BME280;53694;49.784;30.150;2023-07-20T02:51:25;99008.82;;;16.78;70.12
61474;BME280;53694;49.784;30.150;2023-07-20T02:52:26;99003.15;;;16.58;70.68
61474;BME280;53694;49.784;30.150;2023-07-20T02:53:28;99000.20;;;16.41;71.46
61474;BME280;53694;49.784;30.150;2023-07-20T02:54:29;99007.84;;;16.30;72.13
61474;BME280;53694;49.784;30.150;2023-07-20T02:55:31;98995.94;;;16.33;72.33
61474;BME280;53694;49.784;30.150;2023-07-20T02:56:32;98991.41;;;16.46;72.62
61474;BME280;53694;49.784;30.150;2023-07-20T02:57:34;98998.22;;;16.69;72.58
61474;BME280;53694;49.784;30.150;2023-07-20T02:58:35;99004.22;;;16.94;71.63
61474;BME280;53694;49.784;30.150;2023-07-20T02:59:37;98995.45;;;17.23;70.95
61474;BME280;53694;49.784;30.150;2023-07-20T03:00:38;99002.92;;;17.49;70.03
61474;BME280;53694;49.784;30.150;2023-07-20T03:01:40;99008.47;;;17.73;68.79
61474;BME280;53694;49.784;30.150;2023-07-20T03:02:42;99003.77;;;17.93;67.79
61474;BME280;53694;49.784;30.150;2023-07-20T03:03:43;99002.63;;;18.11;66.92
61474;BME280;53694;49.784;30.150;2023-07-20T03:04:44;98990.09;;;18.22;66.27
61474;BME280;53694;49.784;30.150;2023-07-20T03:05:46;99007.61;;;18.19;65.82
61474;BME280;53694;49.784;30.150;2023-07-20T03:06:48;98984.25;;;17.97;66.05
61474;BME280;53694;49.784;30.150;2023-07-20T03:07:49;99008.29;;;17.84;66.42
61474;BME280;53694;49.784;30.150;2023-07-20T03:08:50;99005.53;;;17.60;67.10
61474;BME280;53694;49.784;30.150;2023-07-20T03:09:52;98999.25;;;17.36;68.02
61474;BME280;53694;49.784;30.150;2023-07-20T03:10:54;98999.25;;;17.09;69.01
61474;BME280;53694;49.784;30.150;2023-07-20T03:11:55;99006.69;;;16.89;69.80
61474;BME280;53694;49.784;30.150;2023-07-20T03:12:57;99002.59;;;16.70;70.53
61474;BME280;53694;49.784;30.150;2023-07-20T03:13:59;99005.18;;;16.54;71.15
61474;BME280;53694;49.784;30.150;2023-07-20T03:15:01;99003.43;;;16.36;71.71
61474;BME280;53694;49.784;30.150;2023-07-20T03:16:04;99003.98;;;16.24;72.20
61474;BME280;53694;49.784;30.150;2023-07-20T03:17:05;99007.89;;;16.27;72.48
61474;BME280;53694;49.784;30.150;2023-07-20T03:18:07;99008.13;;;16.39;72.55
61474;BME280;53694;49.784;30.150;2023-07-20T03:19:08;99004.71;;;16.59;72.16
61474;BME280;53694;49.784;30.150;2023-07-20T03:20:11;99013.97;;;16.79;71.46
61474;BME280;53694;49.784;30.150;2023-07-20T03:21:13;99006.11;;;17.01;70.81
61474;BME280;53694;49.784;30.150;2023-07-20T03:22:14;99005.42;;;17.20;69.98
61474;BME280;53694;49.784;30.150;2023-07-20T03:23:16;99008.63;;;17.42;69.48
61474;BME280;53694;49.784;30.150;2023-07-20T03:24:17;98998.36;;;17.63;68.93
61474;BME280;53694;49.784;30.150;2023-07-20T03:25:19;99004.02;;;17.79;68.54
61474;BME280;53694;49.784;30.150;2023-07-20T03:26:21;99010.66;;;17.85;68.62
61474;BME280;53694;49.784;30.150;2023-07-20T03:27:22;98999.95;;;17.84;68.97
61474;BME280;53694;49.784;30.150;2023-07-20T03:28:24;99000.11;;;17.77;69.28
61474;BME280;53694;49.784;30.150;2023-07-20T03:29:26;99001.04;;;17.66;69.36
61474;BME280;53694;49.784;30.150;2023-07-20T03:30:27;98994.48;;;17.57;70.91
61474;BME280;53694;49.784;30.150;2023-07-20T03:31:29;98990.75;;;17.43;71.70
61474;BME280;53694;49.784;30.150;2023-07-20T03:32:30;99000.46;;;17.32;71.27
61474;BME280;53694;49.784;30.150;2023-07-20T03:33:32;98995.83;;;17.25;71.09
61474;BME280;53694;49.784;30.150;2023-07-20T03:34:33;98995.75;;;17.29;71.03
61474;BME280;53694;49.784;30.150;2023-07-20T03:35:35;98990.38;;;17.41;70.58
61474;BME280;53694;49.784;30.150;2023-07-20T03:36:36;98994.77;;;17.62;70.10
61474;BME280;53694;49.784;30.150;2023-07-20T03:37:38;98996.40;;;17.83;69.18
61474;BME280;53694;49.784;30.150;2023-07-20T03:38:39;99001.13;;;18.06;68.29
61474;BME280;53694;49.784;30.150;2023-07-20T03:39:41;98990.36;;;18.28;67.34
61474;BME280;53694;49.784;30.150;2023-07-20T03:40:54;98990.83;;;18.43;66.65
61474;BME280;53694;49.784;30.150;2023-07-20T03:41:53;98988.42;;;18.45;66.15
61474;BME280;53694;49.784;30.150;2023-07-20T03:42:54;98991.78;;;18.36;66.07
61474;BME280;53694;49.784;30.150;2023-07-20T03:43:56;98994.84;;;18.22;66.21
61474;BME280;53694;49.784;30.150;2023-07-20T03:44:57;99001.20;;;18.03;66.79
61474;BME280;53694;49.784;30.150;2023-07-20T03:45:59;98993.63;;;17.83;67.51
61474;BME280;53694;49.784;30.150;2023-07-20T03:47:00;98998.36;;;17.61;68.31
61474;BME280;53694;49.784;30.150;2023-07-20T03:48:02;98998.36;;;17.39;69.31
61474;BME280;53694;49.784;30.150;2023-07-20T03:49:03;98997.09;;;17.20;69.93
61474;BME280;53694;49.784;30.150;2023-07-20T03:50:06;99004.84;;;17.06;71.05
61474;BME280;53694;49.784;30.150;2023-07-20T03:51:08;98999.93;;;16.90;71.84
61474;BME280;53694;49.784;30.150;2023-07-20T03:52:09;98996.59;;;16.75;72.71
61474;BME280;53694;49.784;30.150;2023-07-20T03:53:12;98995.87;;;16.67;73.63
61474;BME280;53694;49.784;30.150;2023-07-20T03:54:13;98997.39;;;16.72;73.98
61474;BME280;53694;49.784;30.150;2023-07-20T03:55:15;99001.14;;;16.89;74.14
61474;BME280;53694;49.784;30.150;2023-07-20T03:56:16;98993.70;;;17.09;73.79
61474;BME280;53694;49.784;30.150;2023-07-20T03:57:18;99007.52;;;17.36;73.46
61474;BME280;53694;49.784;30.150;2023-07-20T03:58:20;98997.14;;;17.64;72.78
61474;BME280;53694;49.784;30.150;2023-07-20T03:59:21;98995.43;;;17.93;71.94
61474;BME280;53694;49.784;30.150;2023-07-20T04:00:23;98999.55;;;18.25;70.86
61474;BME280;53694;49.784;30.150;2023-07-20T04:01:24;98996.17;;;18.54;69.69
61474;BME280;53694;49.784;30.150;2023-07-20T04:02:26;98994.36;;;18.83;68.70
61474;BME280;53694;49.784;30.150;2023-07-20T04:03:27;98991.07;;;19.05;67.49
61474;BME280;53694;49.784;30.150;2023-07-20T04:04:29;98993.86;;;19.21;66.64
61474;BME280;53694;49.784;30.150;2023-07-20T04:05:30;98998.53;;;19.24;66.13
61474;BME280;53694;49.784;30.150;2023-07-20T04:06:32;98994.39;;;19.16;66.02
61474;BME280;53694;49.784;30.150;2023-07-20T04:07:34;98992.88;;;18.79;67.03
61474;BME280;53694;49.784;30.150;2023-07-20T04:08:36;98992.88;;;18.79;67.03
61474;BME280;53694;49.784;30.150;2023-07-20T04:09:37;98997.22;;;18.60;67.37
61474;BME280;53694;49.784;30.150;2023-07-20T04:10:42;98994.91;;;18.38;67.86
61474;BME280;53694;49.784;30.150;2023-07-20T04:11:43;98996.50;;;18.19;68.65
61474;BME280;53694;49.784;30.150;2023-07-20T04:12:45;98996.86;;;18.02;69.47
61474;BME280;53694;49.784;30.150;2023-07-20T04:13:46;99009.81;;;17.88;70.13
61474;BME280;53694;49.784;30.150;2023-07-20T04:14:48;99010.06;;;17.74;70.77
61474;BME280;53694;49.784;30.150;2023-07-20T04:15:49;99007.03;;;17.65;71.37
61474;BME280;53694;49.784;30.150;2023-07-20T04:16:50;99003.91;;;17.63;71.76
61474;BME280;53694;49.784;30.150;2023-07-20T04:17:52;99009.69;;;17.72;71.92
61474;BME280;53694;49.784;30.150;2023-07-20T04:18:57;99005.39;;;17.91;71.66
61474;BME280;53694;49.784;30.150;2023-07-20T04:19:59;98998.12;;;18.17;71.09
61474;BME280;53694;49.784;30.150;2023-07-20T04:21:00;99008.66;;;18.45;70.39
61474;BME280;53694;49.784;30.150;2023-07-20T04:22:02;99000.85;;;18.77;69.20
61474;BME280;53694;49.784;30.150;2023-07-20T04:23:03;99014.11;;;19.05;67.98
61474;BME280;53694;49.784;30.150;2023-07-20T04:24:05;98999.68;;;19.27;65.96
61474;BME280;53694;49.784;30.150;2023-07-20T04:25:08;99000.98;;;19.38;64.28
61474;BME280;53694;49.784;30.150;2023-07-20T04:26:09;99006.55;;;19.38;64.01
61474;BME280;53694;49.784;30.150;2023-07-20T04:27:10;99005.94;;;19.31;65.00
61474;BME280;53694;49.784;30.150;2023-07-20T04:28:12;99011.42;;;19.18;65.73
61474;BME280;53694;49.784;30.150;2023-07-20T04:29:13;99010.55;;;19.05;66.28
61474;BME280;53694;49.784;30.150;2023-07-20T04:30:17;99005.66;;;18.92;66.81
61474;BME280;53694;49.784;30.150;2023-07-20T04:31:19;99006.34;;;18.80;67.39
61474;BME280;53694;49.784;30.150;2023-07-20T04:32:21;99007.38;;;18.70;68.87
61474;BME280;53694;49.784;30.150;2023-07-20T04:33:22;99005.16;;;18.61;69.55
61474;BME280;53694;49.784;30.150;2023-07-20T04:34:23;99001.37;;;18.52;69.38
61474;BME280;53694;49.784;30.150;2023-07-20T04:35:50;99001.54;;;18.44;69.34
61474;BME280;53694;49.784;30.150;2023-07-20T04:36:52;98993.34;;;18.37;69.32
61474;BME280;53694;49.784;30.150;2023-07-20T04:37:54;99001.04;;;18.30;69.66
61474;BME280;53694;49.784;30.150;2023-07-20T04:38:55;99003.98;;;18.22;69.60
61474;BME280;53694;49.784;30.150;2023-07-20T04:39:57;98999.07;;;18.10;69.74
61474;BME280;53694;49.784;30.150;2023-07-20T04:40:58;98999.07;;;18.10;69.74
61474;BME280;53694;49.784;30.150;2023-07-20T04:42:00;99002.33;;;18.05;69.93
61474;BME280;53694;49.784;30.150;2023-07-20T04:43:01;98996.08;;;18.01;70.28
61474;BME280;53694;49.784;30.150;2023-07-20T04:44:04;99007.26;;;17.97;70.39
61474;BME280;53694;49.784;30.150;2023-07-20T04:45:06;99002.55;;;17.94;70.40
61474;BME280;53694;49.784;30.150;2023-07-20T04:46:08;99006.04;;;17.98;70.47
61474;BME280;53694;49.784;30.150;2023-07-20T04:47:10;99008.90;;;18.15;70.50
61474;BME280;53694;49.784;30.150;2023-07-20T04:48:13;99007.17;;;18.41;69.90
61474;BME280;53694;49.784;30.150;2023-07-20T04:49:15;99006.93;;;18.71;68.43
61474;BME280;53694;49.784;30.150;2023-07-20T04:50:17;99001.84;;;19.03;67.34
61474;BME280;53694;49.784;30.150;2023-07-20T04:51:18;99002.02;;;19.28;66.84
61474;BME280;53694;49.784;30.150;2023-07-20T04:52:20;98998.89;;;19.42;66.46
61474;BME280;53694;49.784;30.150;2023-07-20T04:53:21;99001.48;;;19.49;66.01
61474;BME280;53694;49.784;30.150;2023-07-20T04:54:23;98997.13;;;19.48;65.81
61474;BME280;53694;49.784;30.150;2023-07-20T04:55:24;99000.00;;;19.45;65.33
61474;BME280;53694;49.784;30.150;2023-07-20T04:56:25;98996.20;;;19.39;65.42
61474;BME280;53694;49.784;30.150;2023-07-20T04:57:27;98995.95;;;19.33;65.02
61474;BME280;53694;49.784;30.150;2023-07-20T04:58:28;98994.89;;;19.27;65.18
61474;BME280;53694;49.784;30.150;2023-07-20T04:59:30;98998.20;;;19.22;65.54
61474;BME280;53694;49.784;30.150;2023-07-20T05:00:35;98990.02;;;19.15;65.51
61474;BME280;53694;49.784;30.150;2023-07-20T05:01:38;98991.84;;;19.05;65.30
61474;BME280;53694;49.784;30.150;2023-07-20T05:02:40;98988.45;;;18.97;64.89
61474;BME280;53694;49.784;30.150;2023-07-20T05:03:41;98991.42;;;18.90;65.17
61474;BME280;53694;49.784;30.150;2023-07-20T05:04:43;98987.94;;;18.86;65.44
61474;BME280;53694;49.784;30.150;2023-07-20T05:05:44;98981.67;;;18.82;65.77
61474;BME280;53694;49.784;30.150;2023-07-20T05:06:46;98981.75;;;18.79;66.34
61474;BME280;53694;49.784;30.150;2023-07-20T05:07:47;98978.59;;;18.77;66.32
61474;BME280;53694;49.784;30.150;2023-07-20T05:08:49;98983.38;;;18.76;66.42
61474;BME280;53694;49.784;30.150;2023-07-20T05:09:50;98975.48;;;18.75;66.33
61474;BME280;53694;49.784;30.150;2023-07-20T05:10:52;98982.60;;;18.76;66.42
61474;BME280;53694;49.784;30.150;2023-07-20T05:11:53;98980.97;;;18.78;66.38
61474;BME280;53694;49.784;30.150;2023-07-20T05:12:55;98978.52;;;18.80;66.13
61474;BME280;53694;49.784;30.150;2023-07-20T05:13:56;98979.22;;;18.84;65.98
61474;BME280;53694;49.784;30.150;2023-07-20T05:14:58;98978.36;;;18.87;65.93
61474;BME280;53694;49.784;30.150;2023-07-20T05:15:59;98980.29;;;18.90;65.94
61474;BME280;53694;49.784;30.150;2023-07-20T05:17:01;98973.06;;;18.93;65.70
61474;BME280;53694;49.784;30.150;2023-07-20T05:18:02;98974.98;;;18.96;65.06
61474;BME280;53694;49.784;30.150;2023-07-20T05:19:04;98972.53;;;18.98;64.94
61474;BME280;53694;49.784;30.150;2023-07-20T05:20:06;98971.67;;;19.01;65.42
61474;BME280;53694;49.784;30.150;2023-07-20T05:21:08;98972.37;;;19.05;65.07
61474;BME280;53694;49.784;30.150;2023-07-20T05:22:09;98975.07;;;19.09;64.82
61474;BME280;53694;49.784;30.150;2023-07-20T05:23:11;98980.97;;;19.11;64.32
61474;BME280;53694;49.784;30.150;2023-07-20T05:24:12;98968.98;;;19.14;63.84
61474;BME280;53694;49.784;30.150;2023-07-20T05:25:14;98972.13;;;19.16;63.48
61474;BME280;53694;49.784;30.150;2023-07-20T05:26:16;98976.80;;;19.19;63.07
61474;BME280;53694;49.784;30.150;2023-07-20T05:27:17;98966.03;;;19.21;63.15
61474;BME280;53694;49.784;30.150;2023-07-20T05:28:19;98971.84;;;19.27;63.25
61474;BME280;53694;49.784;30.150;2023-07-20T05:29:20;98974.88;;;19.32;63.51
61474;BME280;53694;49.784;30.150;2023-07-20T05:30:22;98966.80;;;19.38;63.28
61474;BME280;53694;49.784;30.150;2023-07-20T05:31:23;98966.59;;;19.45;62.84
61474;BME280;53694;49.784;30.150;2023-07-20T05:32:25;98959.28;;;19.51;62.95